sensor_id;sensor_type;location;lat;lon;timestamp;temperature;humidity
52531;DHT22;38441;52.894;6.040;2022-09-09T00:01:23;15.00;99.90
52531;DHT22;38441;52.894;6.040;2022-09-09T00:04:31;14.90;99.90
52531;DHT22;38441;52.894;6.040;2022-09-09T00:09:47;14.90;99.90
52531;DHT22;38441;52.894;6.040;2022-09-09T00:12:36;14.90;99.90
52531;DHT22;38441;52.894;6.040;2022-09-09T00:15:12;14.90;99.90
52531;DHT22;38441;52.894;6.040;2022-09-09T00:17:53;14.90;99.90
52531;DHT22;38441;52.894;6.040;2022-09-09T00:23:37;15.00;99.90
52531;DHT22;38441;52.894;6.040;2022-09-09T00:29:10;14.80;99.90
52531;DHT22;38441;52.894;6.040;2022-09-09T00:34:24;14.80;99.90
52531;DHT22;38441;52.894;6.040;2022-09-09T00:36:52;14.80;99.90
52531;DHT22;38441;52.894;6.040;2022-09-09T00:39:31;14.90;99.90
52531;DHT22;38441;52.894;6.040;2022-09-09T00:44:55;14.90;99.90
52531;DHT22;38441;52.894;6.040;2022-09-09T00:52:51;14.80;99.90
52531;DHT22;38441;52.894;6.040;2022-09-09T00:56:14;14.80;99.90
52531;DHT22;38441;52.894;6.040;2022-09-09T01:06:28;14.80;99.90
52531;DHT22;38441;52.894;6.040;2022-09-09T01:09:22;14.80;99.90
52531;DHT22;38441;52.894;6.040;2022-09-09T01:17:17;14.80;99.90
52531;DHT22;38441;52.894;6.040;2022-09-09T01:22:33;14.80;99.90
52531;DHT22;38441;52.894;6.040;2022-09-09T01:28:00;14.80;99.90
52531;DHT22;38441;52.894;6.040;2022-09-09T01:32:55;14.90;99.90
52531;DHT22;38441;52.894;6.040;2022-09-09T01:35:37;14.80;99.90
52531;DHT22;38441;52.894;6.040;2022-09-09T01:40:31;14.70;99.90
52531;DHT22;38441;52.894;6.040;2022-09-09T01:47:51;14.80;99.90
52531;DHT22;38441;52.894;6.040;2022-09-09T01:52:45;14.80;99.90
52531;DHT22;38441;52.894;6.040;2022-09-09T01:55:11;14.90;99.90
52531;DHT22;38441;52.894;6.040;2022-09-09T02:00:10;14.80;99.90
52531;DHT22;38441;52.894;6.040;2022-09-09T02:05:39;14.70;99.90
52531;DHT22;38441;52.894;6.040;2022-09-09T02:08:09;14.80;99.90
52531;DHT22;38441;52.894;6.040;2022-09-09T02:13:17;14.80;99.90
52531;DHT22;38441;52.894;6.040;2022-09-09T02:16:00;14.80;99.90
52531;DHT22;38441;52.894;6.040;2022-09-09T02:18:35;14.80;99.90
52531;DHT22;38441;52.894;6.040;2022-09-09T02:21:02;14.90;99.90
52531;DHT22;38441;52.894;6.040;2022-09-09T02:25:56;14.70;99.90
52531;DHT22;38441;52.894;6.040;2022-09-09T02:28:25;14.80;99.90
52531;DHT22;38441;52.894;6.040;2022-09-09T02:33:22;15.00;99.90
52531;DHT22;38441;52.894;6.040;2022-09-09T02:35:51;14.80;99.90
52531;DHT22;38441;52.894;6.040;2022-09-09T02:45:42;14.80;99.90
52531;DHT22;38441;52.894;6.040;2022-09-09T02:48:17;16.20;99.90
52531;DHT22;38441;52.894;6.040;2022-09-09T02:51:02;14.90;99.90
52531;DHT22;38441;52.894;6.040;2022-09-09T03:03:28;14.90;99.90
52531;DHT22;38441;52.894;6.040;2022-09-09T03:05:54;14.90;99.90
52531;DHT22;38441;52.894;6.040;2022-09-09T03:08:20;14.80;99.90
52531;DHT22;38441;52.894;6.040;2022-09-09T03:23:00;14.80;99.90
52531;DHT22;38441;52.894;6.040;2022-09-09T03:25:26;14.80;99.90
52531;DHT22;38441;52.894;6.040;2022-09-09T03:27:53;15.00;99.90
52531;DHT22;38441;52.894;6.040;2022-09-09T03:30:21;14.80;99.90
52531;DHT22;38441;52.894;6.040;2022-09-09T03:40:07;14.80;99.90
52531;DHT22;38441;52.894;6.040;2022-09-09T03:45:03;14.80;99.90
52531;DHT22;38441;52.894;6.040;2022-09-09T03:52:21;14.80;99.90
52531;DHT22;38441;52.894;6.040;2022-09-09T04:07:01;14.80;99.90
52531;DHT22;38441;52.894;6.040;2022-09-09T04:09:27;14.80;99.90
52531;DHT22;38441;52.894;6.040;2022-09-09T04:11:53;14.80;99.90
52531;DHT22;38441;52.894;6.040;2022-09-09T04:14:19;14.90;99.90
52531;DHT22;38441;52.894;6.040;2022-09-09T04:19:12;14.70;99.90
52531;DHT22;38441;52.894;6.040;2022-09-09T04:21:40;14.80;99.90
52531;DHT22;38441;52.894;6.040;2022-09-09T04:24:08;14.70;99.90
52531;DHT22;38441;52.894;6.040;2022-09-09T04:26:34;14.70;99.90
52531;DHT22;38441;52.894;6.040;2022-09-09T04:51:02;14.70;99.90
52531;DHT22;38441;52.894;6.040;2022-09-09T04:56:05;14.60;99.90
52531;DHT22;38441;52.894;6.040;2022-09-09T05:01:11;14.70;99.90
52531;DHT22;38441;52.894;6.040;2022-09-09T05:06:08;14.60;99.90
52531;DHT22;38441;52.894;6.040;2022-09-09T05:08:36;14.60;99.90
52531;DHT22;38441;52.894;6.040;2022-09-09T05:18:21;14.50;99.90
52531;DHT22;38441;52.894;6.040;2022-09-09T05:47:36;14.50;99.90
52531;DHT22;38441;52.894;6.040;2022-09-09T05:50:03;14.40;99.90
52531;DHT22;38441;52.894;6.040;2022-09-09T06:29:09;14.50;99.90
52531;DHT22;38441;52.894;6.040;2022-09-09T06:31:36;14.80;99.90
52531;DHT22;38441;52.894;6.040;2022-09-09T06:34:04;14.60;99.90
52531;DHT22;38441;52.894;6.040;2022-09-09T06:36:35;14.60;99.90
52531;DHT22;38441;52.894;6.040;2022-09-09T06:41:30;14.60;99.90
52531;DHT22;38441;52.894;6.040;2022-09-09T06:43:57;14.70;99.90
52531;DHT22;38441;52.894;6.040;2022-09-09T06:46:28;14.80;99.90
52531;DHT22;38441;52.894;6.040;2022-09-09T06:51:29;14.70;99.90
52531;DHT22;38441;52.894;6.040;2022-09-09T06:53:57;14.80;99.90
52531;DHT22;38441;52.894;6.040;2022-09-09T06:56:35;14.70;99.90
52531;DHT22;38441;52.894;6.040;2022-09-09T06:59:03;14.70;99.90
52531;DHT22;38441;52.894;6.040;2022-09-09T07:01:37;14.70;99.90
52531;DHT22;38441;52.894;6.040;2022-09-09T07:04:04;14.60;99.90
52531;DHT22;38441;52.894;6.040;2022-09-09T07:06:35;15.00;99.90
52531;DHT22;38441;52.894;6.040;2022-09-09T07:09:03;14.70;99.90
52531;DHT22;38441;52.894;6.040;2022-09-09T07:11:37;14.90;99.90
52531;DHT22;38441;52.894;6.040;2022-09-09T07:16:29;14.80;99.90
52531;DHT22;38441;52.894;6.040;2022-09-09T07:21:26;14.90;99.90
52531;DHT22;38441;52.894;6.040;2022-09-09T07:26:22;14.90;99.90
52531;DHT22;38441;52.894;6.040;2022-09-09T07:28:48;15.00;99.90
52531;DHT22;38441;52.894;6.040;2022-09-09T07:31:19;15.00;99.90
52531;DHT22;38441;52.894;6.040;2022-09-09T07:33:45;15.20;99.90
52531;DHT22;38441;52.894;6.040;2022-09-09T07:38:45;15.30;99.90
52531;DHT22;38441;52.894;6.040;2022-09-09T07:41:26;15.50;99.90
52531;DHT22;38441;52.894;6.040;2022-09-09T07:46:23;15.70;99.90
52531;DHT22;38441;52.894;6.040;2022-09-09T07:48:54;15.70;99.90
52531;DHT22;38441;52.894;6.040;2022-09-09T07:51:28;15.40;99.90
52531;DHT22;38441;52.894;6.040;2022-09-09T07:53:56;16.00;99.90
52531;DHT22;38441;52.894;6.040;2022-09-09T07:56:23;16.00;99.90
52531;DHT22;38441;52.894;6.040;2022-09-09T07:58:51;16.00;99.90
52531;DHT22;38441;52.894;6.040;2022-09-09T08:01:29;16.00;99.90
52531;DHT22;38441;52.894;6.040;2022-09-09T08:06:27;15.40;99.90
52531;DHT22;38441;52.894;6.040;2022-09-09T08:08:53;16.10;99.90
52531;DHT22;38441;52.894;6.040;2022-09-09T08:11:20;16.30;99.90
52531;DHT22;38441;52.894;6.040;2022-09-09T08:16:17;16.40;99.90
52531;DHT22;38441;52.894;6.040;2022-09-09T08:18:43;16.30;99.90
52531;DHT22;38441;52.894;6.040;2022-09-09T08:23:40;16.60;99.90
52531;DHT22;38441;52.894;6.040;2022-09-09T08:26:20;16.10;99.90
52531;DHT22;38441;52.894;6.040;2022-09-09T08:31:17;16.70;99.90
52531;DHT22;38441;52.894;6.040;2022-09-09T08:33:43;16.10;99.90
52531;DHT22;38441;52.894;6.040;2022-09-09T08:36:13;19.30;99.90
52531;DHT22;38441;52.894;6.040;2022-09-09T08:38:41;17.00;99.90
52531;DHT22;38441;52.894;6.040;2022-09-09T08:41:17;16.80;99.90
52531;DHT22;38441;52.894;6.040;2022-09-09T08:43:46;18.70;99.90
52531;DHT22;38441;52.894;6.040;2022-09-09T08:46:25;17.10;99.90
52531;DHT22;38441;52.894;6.040;2022-09-09T08:49:12;17.00;99.90
52531;DHT22;38441;52.894;6.040;2022-09-09T08:51:41;17.30;99.90
52531;DHT22;38441;52.894;6.040;2022-09-09T08:54:09;18.80;99.90
52531;DHT22;38441;52.894;6.040;2022-09-09T08:56:35;16.90;99.90
52531;DHT22;38441;52.894;6.040;2022-09-09T08:59:02;16.80;99.90
52531;DHT22;38441;52.894;6.040;2022-09-09T09:01:56;17.80;99.90
52531;DHT22;38441;52.894;6.040;2022-09-09T09:07:26;17.50;99.90
52531;DHT22;38441;52.894;6.040;2022-09-09T09:10:25;17.40;99.90
52531;DHT22;38441;52.894;6.040;2022-09-09T09:12:56;17.50;99.90
52531;DHT22;38441;52.894;6.040;2022-09-09T09:15:41;17.10;99.90
52531;DHT22;38441;52.894;6.040;2022-09-09T09:18:08;16.70;99.90
52531;DHT22;38441;52.894;6.040;2022-09-09T09:23:56;17.50;99.90
52531;DHT22;38441;52.894;6.040;2022-09-09T09:26:25;17.60;99.90
52531;DHT22;38441;52.894;6.040;2022-09-09T09:28:56;16.80;99.90
52531;DHT22;38441;52.894;6.040;2022-09-09T09:31:22;20.20;99.90
52531;DHT22;38441;52.894;6.040;2022-09-09T09:33:54;19.10;99.90
52531;DHT22;38441;52.894;6.040;2022-09-09T09:36:35;17.10;99.90
52531;DHT22;38441;52.894;6.040;2022-09-09T09:39:03;19.20;99.90
52531;DHT22;38441;52.894;6.040;2022-09-09T09:41:33;17.40;99.90
52531;DHT22;38441;52.894;6.040;2022-09-09T09:44:01;20.50;99.90
52531;DHT22;38441;52.894;6.040;2022-09-09T09:46:27;19.70;99.90
52531;DHT22;38441;52.894;6.040;2022-09-09T09:49:00;15.80;99.90
52531;DHT22;38441;52.894;6.040;2022-09-09T09:51:28;17.60;99.90
52531;DHT22;38441;52.894;6.040;2022-09-09T09:54:07;17.80;99.90
52531;DHT22;38441;52.894;6.040;2022-09-09T09:56:35;19.30;99.90
52531;DHT22;38441;52.894;6.040;2022-09-09T09:59:00;20.00;99.90
52531;DHT22;38441;52.894;6.040;2022-09-09T10:01:28;19.00;99.90
52531;DHT22;38441;52.894;6.040;2022-09-09T10:06:36;20.30;99.90
52531;DHT22;38441;52.894;6.040;2022-09-09T10:09:18;19.70;99.90
52531;DHT22;38441;52.894;6.040;2022-09-09T10:14:33;18.40;99.90
52531;DHT22;38441;52.894;6.040;2022-09-09T10:19:36;18.50;99.90
52531;DHT22;38441;52.894;6.040;2022-09-09T10:22:12;18.10;99.90
52531;DHT22;38441;52.894;6.040;2022-09-09T10:27:21;20.40;99.90
52531;DHT22;38441;52.894;6.040;2022-09-09T10:35:30;18.20;99.90
52531;DHT22;38441;52.894;6.040;2022-09-09T10:38:16;18.50;99.90
52531;DHT22;38441;52.894;6.040;2022-09-09T10:46:31;18.20;99.90
52531;DHT22;38441;52.894;6.040;2022-09-09T10:55:25;18.40;99.90
52531;DHT22;38441;52.894;6.040;2022-09-09T10:57:53;17.20;99.90
52531;DHT22;38441;52.894;6.040;2022-09-09T11:00:21;19.70;99.90
52531;DHT22;38441;52.894;6.040;2022-09-09T11:02:53;17.70;99.90
52531;DHT22;38441;52.894;6.040;2022-09-09T11:05:38;17.10;99.90
52531;DHT22;38441;52.894;6.040;2022-09-09T11:08:24;18.10;99.90
52531;DHT22;38441;52.894;6.040;2022-09-09T11:13:39;19.80;99.90
52531;DHT22;38441;52.894;6.040;2022-09-09T11:16:15;17.90;99.90
52531;DHT22;38441;52.894;6.040;2022-09-09T11:18:42;18.50;99.90
52531;DHT22;38441;52.894;6.040;2022-09-09T11:21:21;19.20;99.90
52531;DHT22;38441;52.894;6.040;2022-09-09T11:24:14;19.00;99.90
52531;DHT22;38441;52.894;6.040;2022-09-09T11:26:55;17.70;99.90
52531;DHT22;38441;52.894;6.040;2022-09-09T11:29:50;18.00;99.90
52531;DHT22;38441;52.894;6.040;2022-09-09T11:40:35;18.30;99.90
52531;DHT22;38441;52.894;6.040;2022-09-09T11:43:13;21.00;99.90
52531;DHT22;38441;52.894;6.040;2022-09-09T11:45:41;18.20;99.90
52531;DHT22;38441;52.894;6.040;2022-09-09T11:48:37;17.20;99.90
52531;DHT22;38441;52.894;6.040;2022-09-09T11:51:09;18.30;99.90
52531;DHT22;38441;52.894;6.040;2022-09-09T11:53:57;17.70;99.90
52531;DHT22;38441;52.894;6.040;2022-09-09T11:56:43;20.80;99.90
52531;DHT22;38441;52.894;6.040;2022-09-09T11:59:29;19.40;99.90
52531;DHT22;38441;52.894;6.040;2022-09-09T12:02:22;19.60;99.90
52531;DHT22;38441;52.894;6.040;2022-09-09T12:05:05;17.40;99.90
52531;DHT22;38441;52.894;6.040;2022-09-09T12:08:03;18.70;99.90
52531;DHT22;38441;52.894;6.040;2022-09-09T12:10:31;20.50;99.90
52531;DHT22;38441;52.894;6.040;2022-09-09T12:15:34;18.40;99.90
52531;DHT22;38441;52.894;6.040;2022-09-09T12:18:00;16.90;99.90
52531;DHT22;38441;52.894;6.040;2022-09-09T12:20:31;18.70;99.90
52531;DHT22;38441;52.894;6.040;2022-09-09T12:31:12;18.50;99.90
52531;DHT22;38441;52.894;6.040;2022-09-09T12:33:44;18.80;99.90
52531;DHT22;38441;52.894;6.040;2022-09-09T12:36:29;17.60;99.90
52531;DHT22;38441;52.894;6.040;2022-09-09T12:38:59;18.50;99.90
52531;DHT22;38441;52.894;6.040;2022-09-09T12:41:36;20.10;99.90
52531;DHT22;38441;52.894;6.040;2022-09-09T12:44:08;19.00;99.90
52531;DHT22;38441;52.894;6.040;2022-09-09T12:46:42;18.50;99.90
52531;DHT22;38441;52.894;6.040;2022-09-09T12:49:42;19.10;99.90
52531;DHT22;38441;52.894;6.040;2022-09-09T12:52:35;21.20;99.90
52531;DHT22;38441;52.894;6.040;2022-09-09T12:55:04;18.80;99.90
52531;DHT22;38441;52.894;6.040;2022-09-09T12:57:36;18.60;99.90
52531;DHT22;38441;52.894;6.040;2022-09-09T13:00:15;20.00;99.90
52531;DHT22;38441;52.894;6.040;2022-09-09T13:02:50;18.80;99.90
52531;DHT22;38441;52.894;6.040;2022-09-09T13:05:27;20.40;99.90
52531;DHT22;38441;52.894;6.040;2022-09-09T13:08:11;20.50;99.90
52531;DHT22;38441;52.894;6.040;2022-09-09T13:10:54;18.40;99.90
52531;DHT22;38441;52.894;6.040;2022-09-09T13:13:27;18.60;99.90
52531;DHT22;38441;52.894;6.040;2022-09-09T13:15:59;20.50;99.90
52531;DHT22;38441;52.894;6.040;2022-09-09T13:18:31;18.50;99.90
52531;DHT22;38441;52.894;6.040;2022-09-09T13:20:58;21.00;99.90
52531;DHT22;38441;52.894;6.040;2022-09-09T13:23:30;18.80;99.90
52531;DHT22;38441;52.894;6.040;2022-09-09T13:25:58;20.20;99.90
52531;DHT22;38441;52.894;6.040;2022-09-09T13:28:29;21.30;99.90
52531;DHT22;38441;52.894;6.040;2022-09-09T13:31:03;20.20;99.90
52531;DHT22;38441;52.894;6.040;2022-09-09T13:33:32;19.00;99.90
52531;DHT22;38441;52.894;6.040;2022-09-09T13:36:00;20.10;99.90
52531;DHT22;38441;52.894;6.040;2022-09-09T13:38:28;20.50;99.90
52531;DHT22;38441;52.894;6.040;2022-09-09T13:40:57;20.10;99.90
52531;DHT22;38441;52.894;6.040;2022-09-09T13:43:25;20.30;99.90
52531;DHT22;38441;52.894;6.040;2022-09-09T13:46:04;19.00;99.90
52531;DHT22;38441;52.894;6.040;2022-09-09T13:48:30;19.30;99.90
52531;DHT22;38441;52.894;6.040;2022-09-09T13:51:04;21.00;99.90
52531;DHT22;38441;52.894;6.040;2022-09-09T13:53:31;19.50;99.90
52531;DHT22;38441;52.894;6.040;2022-09-09T13:55:57;18.50;99.90
52531;DHT22;38441;52.894;6.040;2022-09-09T13:58:24;19.60;99.90
52531;DHT22;38441;52.894;6.040;2022-09-09T14:00:51;21.40;99.90
52531;DHT22;38441;52.894;6.040;2022-09-09T14:03:18;20.90;99.90
52531;DHT22;38441;52.894;6.040;2022-09-09T14:05:44;19.10;99.90
52531;DHT22;38441;52.894;6.040;2022-09-09T14:08:16;21.90;99.90
52531;DHT22;38441;52.894;6.040;2022-09-09T14:10:46;18.20;99.90
52531;DHT22;38441;52.894;6.040;2022-09-09T14:13:11;21.10;99.90
52531;DHT22;38441;52.894;6.040;2022-09-09T14:15:38;20.40;99.90
52531;DHT22;38441;52.894;6.040;2022-09-09T14:18:03;20.50;99.90
52531;DHT22;38441;52.894;6.040;2022-09-09T14:20:29;19.30;99.90
52531;DHT22;38441;52.894;6.040;2022-09-09T14:22:55;20.50;99.90
52531;DHT22;38441;52.894;6.040;2022-09-09T14:25:36;20.60;99.90
52531;DHT22;38441;52.894;6.040;2022-09-09T14:28:02;20.10;99.90
52531;DHT22;38441;52.894;6.040;2022-09-09T14:30:27;18.00;99.90
52531;DHT22;38441;52.894;6.040;2022-09-09T14:32:53;19.10;99.90
52531;DHT22;38441;52.894;6.040;2022-09-09T14:35:18;20.80;99.90
52531;DHT22;38441;52.894;6.040;2022-09-09T14:37:44;18.20;99.90
52531;DHT22;38441;52.894;6.040;2022-09-09T14:40:10;18.50;99.90
52531;DHT22;38441;52.894;6.040;2022-09-09T14:42:36;18.60;99.90
52531;DHT22;38441;52.894;6.040;2022-09-09T14:45:02;21.10;99.90
52531;DHT22;38441;52.894;6.040;2022-09-09T14:47:28;18.60;99.90
52531;DHT22;38441;52.894;6.040;2022-09-09T14:49:55;19.70;99.90
52531;DHT22;38441;52.894;6.040;2022-09-09T14:52:21;20.10;99.90
52531;DHT22;38441;52.894;6.040;2022-09-09T14:54:46;19.40;99.90
52531;DHT22;38441;52.894;6.040;2022-09-09T14:57:12;17.60;99.90
52531;DHT22;38441;52.894;6.040;2022-09-09T14:59:37;17.50;99.90
52531;DHT22;38441;52.894;6.040;2022-09-09T15:02:09;19.20;99.90
52531;DHT22;38441;52.894;6.040;2022-09-09T15:04:35;17.50;99.90
52531;DHT22;38441;52.894;6.040;2022-09-09T15:07:00;18.60;99.90
52531;DHT22;38441;52.894;6.040;2022-09-09T15:09:26;18.90;99.90
52531;DHT22;38441;52.894;6.040;2022-09-09T15:11:55;18.10;99.90
52531;DHT22;38441;52.894;6.040;2022-09-09T15:14:21;18.30;99.90
52531;DHT22;38441;52.894;6.040;2022-09-09T15:16:46;19.20;99.90
52531;DHT22;38441;52.894;6.040;2022-09-09T15:19:12;18.60;99.90
52531;DHT22;38441;52.894;6.040;2022-09-09T15:21:38;19.80;99.90
52531;DHT22;38441;52.894;6.040;2022-09-09T15:24:04;18.90;99.90
52531;DHT22;38441;52.894;6.040;2022-09-09T15:26:32;18.50;99.90
52531;DHT22;38441;52.894;6.040;2022-09-09T15:28:58;18.30;99.90
52531;DHT22;38441;52.894;6.040;2022-09-09T15:31:29;18.50;99.90
52531;DHT22;38441;52.894;6.040;2022-09-09T15:33:58;19.20;99.90
52531;DHT22;38441;52.894;6.040;2022-09-09T15:36:30;16.20;99.90
52531;DHT22;38441;52.894;6.040;2022-09-09T15:38:58;19.20;99.90
52531;DHT22;38441;52.894;6.040;2022-09-09T15:41:25;20.80;99.90
52531;DHT22;38441;52.894;6.040;2022-09-09T15:43:54;16.80;99.90
52531;DHT22;38441;52.894;6.040;2022-09-09T15:46:34;20.20;99.90
52531;DHT22;38441;52.894;6.040;2022-09-09T15:49:14;20.20;99.90
52531;DHT22;38441;52.894;6.040;2022-09-09T15:51:43;20.10;99.90
52531;DHT22;38441;52.894;6.040;2022-09-09T15:54:11;19.30;99.90
52531;DHT22;38441;52.894;6.040;2022-09-09T15:56:37;20.10;99.90
52531;DHT22;38441;52.894;6.040;2022-09-09T15:59:03;18.90;99.90
52531;DHT22;38441;52.894;6.040;2022-09-09T16:01:30;21.20;99.90
52531;DHT22;38441;52.894;6.040;2022-09-09T16:03:57;20.50;99.90
52531;DHT22;38441;52.894;6.040;2022-09-09T16:06:24;18.70;99.90
52531;DHT22;38441;52.894;6.040;2022-09-09T16:08:52;19.50;99.90
52531;DHT22;38441;52.894;6.040;2022-09-09T16:11:29;19.60;99.90
52531;DHT22;38441;52.894;6.040;2022-09-09T16:13:57;18.70;99.90
52531;DHT22;38441;52.894;6.040;2022-09-09T16:16:25;20.20;99.90
52531;DHT22;38441;52.894;6.040;2022-09-09T16:18:56;20.00;99.90
52531;DHT22;38441;52.894;6.040;2022-09-09T16:21:30;17.50;99.90
52531;DHT22;38441;52.894;6.040;2022-09-09T16:24:00;17.10;99.90
52531;DHT22;38441;52.894;6.040;2022-09-09T16:26:27;20.70;99.90
52531;DHT22;38441;52.894;6.040;2022-09-09T16:28:53;20.00;99.90
52531;DHT22;38441;52.894;6.040;2022-09-09T16:31:21;20.00;99.90
52531;DHT22;38441;52.894;6.040;2022-09-09T16:33:48;19.80;99.90
52531;DHT22;38441;52.894;6.040;2022-09-09T16:36:23;18.40;99.90
52531;DHT22;38441;52.894;6.040;2022-09-09T16:38:58;18.40;99.90
52531;DHT22;38441;52.894;6.040;2022-09-09T16:41:25;21.10;99.90
52531;DHT22;38441;52.894;6.040;2022-09-09T16:44:04;18.40;99.90
52531;DHT22;38441;52.894;6.040;2022-09-09T16:46:33;18.80;99.90
52531;DHT22;38441;52.894;6.040;2022-09-09T16:49:00;19.20;99.90
52531;DHT22;38441;52.894;6.040;2022-09-09T16:51:31;16.70;99.90
52531;DHT22;38441;52.894;6.040;2022-09-09T16:53:59;18.30;99.90
52531;DHT22;38441;52.894;6.040;2022-09-09T16:56:27;19.40;99.90
52531;DHT22;38441;52.894;6.040;2022-09-09T16:58:55;19.90;99.90
52531;DHT22;38441;52.894;6.040;2022-09-09T17:01:22;20.10;99.90
52531;DHT22;38441;52.894;6.040;2022-09-09T17:03:59;18.90;99.90
52531;DHT22;38441;52.894;6.040;2022-09-09T17:06:27;17.90;99.90
52531;DHT22;38441;52.894;6.040;2022-09-09T17:08:58;18.10;99.90
52531;DHT22;38441;52.894;6.040;2022-09-09T17:11:25;20.30;99.90
52531;DHT22;38441;52.894;6.040;2022-09-09T17:13:53;19.20;99.90
52531;DHT22;38441;52.894;6.040;2022-09-09T17:16:20;18.10;99.90
52531;DHT22;38441;52.894;6.040;2022-09-09T17:18:47;19.50;99.90
52531;DHT22;38441;52.894;6.040;2022-09-09T17:21:15;18.00;99.90
52531;DHT22;38441;52.894;6.040;2022-09-09T17:23:42;20.90;99.90
52531;DHT22;38441;52.894;6.040;2022-09-09T17:26:10;20.10;99.90
52531;DHT22;38441;52.894;6.040;2022-09-09T17:28:38;18.00;99.90
52531;DHT22;38441;52.894;6.040;2022-09-09T17:31:05;19.60;99.90
52531;DHT22;38441;52.894;6.040;2022-09-09T17:33:37;18.00;99.90
52531;DHT22;38441;52.894;6.040;2022-09-09T17:36:12;19.70;99.90
52531;DHT22;38441;52.894;6.040;2022-09-09T17:38:38;18.40;99.90
52531;DHT22;38441;52.894;6.040;2022-09-09T17:41:13;18.10;99.90
52531;DHT22;38441;52.894;6.040;2022-09-09T17:43:39;17.90;99.90
52531;DHT22;38441;52.894;6.040;2022-09-09T17:46:26;17.70;99.90
52531;DHT22;38441;52.894;6.040;2022-09-09T17:48:56;17.70;99.90
52531;DHT22;38441;52.894;6.040;2022-09-09T17:51:24;20.50;99.90
52531;DHT22;38441;52.894;6.040;2022-09-09T17:53:52;19.00;99.90
52531;DHT22;38441;52.894;6.040;2022-09-09T17:56:21;19.50;99.90
52531;DHT22;38441;52.894;6.040;2022-09-09T17:58:50;19.00;99.90
52531;DHT22;38441;52.894;6.040;2022-09-09T18:01:22;17.80;99.90
52531;DHT22;38441;52.894;6.040;2022-09-09T18:03:48;19.20;99.90
52531;DHT22;38441;52.894;6.040;2022-09-09T18:06:20;19.80;99.90
52531;DHT22;38441;52.894;6.040;2022-09-09T18:08:53;19.00;99.90
52531;DHT22;38441;52.894;6.040;2022-09-09T18:11:21;17.50;99.90
52531;DHT22;38441;52.894;6.040;2022-09-09T18:13:51;17.50;99.90
52531;DHT22;38441;52.894;6.040;2022-09-09T18:16:18;17.60;99.90
52531;DHT22;38441;52.894;6.040;2022-09-09T18:18:48;17.40;99.90
52531;DHT22;38441;52.894;6.040;2022-09-09T18:21:18;19.20;99.90
52531;DHT22;38441;52.894;6.040;2022-09-09T18:23:45;17.50;99.90
52531;DHT22;38441;52.894;6.040;2022-09-09T18:26:21;16.80;99.90
52531;DHT22;38441;52.894;6.040;2022-09-09T18:28:54;18.50;99.90
52531;DHT22;38441;52.894;6.040;2022-09-09T18:31:20;18.30;99.90
52531;DHT22;38441;52.894;6.040;2022-09-09T18:33:47;17.20;99.90
52531;DHT22;38441;52.894;6.040;2022-09-09T18:36:27;19.30;99.90
52531;DHT22;38441;52.894;6.040;2022-09-09T18:38:55;19.90;99.90
52531;DHT22;38441;52.894;6.040;2022-09-09T18:41:27;18.70;99.90
52531;DHT22;38441;52.894;6.040;2022-09-09T18:43:55;17.30;99.90
52531;DHT22;38441;52.894;6.040;2022-09-09T18:46:23;17.10;99.90
52531;DHT22;38441;52.894;6.040;2022-09-09T18:48:49;17.20;99.90
52531;DHT22;38441;52.894;6.040;2022-09-09T18:51:17;18.40;99.90
52531;DHT22;38441;52.894;6.040;2022-09-09T18:53:49;17.10;99.90
52531;DHT22;38441;52.894;6.040;2022-09-09T18:56:15;17.10;99.90
52531;DHT22;38441;52.894;6.040;2022-09-09T18:59:00;17.00;99.90
52531;DHT22;38441;52.894;6.040;2022-09-09T19:01:27;18.20;99.90
52531;DHT22;38441;52.894;6.040;2022-09-09T19:03:54;17.10;99.90
52531;DHT22;38441;52.894;6.040;2022-09-09T19:06:23;18.80;99.90
52531;DHT22;38441;52.894;6.040;2022-09-09T19:08:50;17.00;99.90
52531;DHT22;38441;52.894;6.040;2022-09-09T19:11:19;16.60;99.90
52531;DHT22;38441;52.894;6.040;2022-09-09T19:13:55;17.00;99.90
52531;DHT22;38441;52.894;6.040;2022-09-09T19:16:23;16.80;99.90
52531;DHT22;38441;52.894;6.040;2022-09-09T19:18:50;17.00;99.90
52531;DHT22;38441;52.894;6.040;2022-09-09T19:21:25;18.50;99.90
52531;DHT22;38441;52.894;6.040;2022-09-09T19:26:26;18.00;99.90
52531;DHT22;38441;52.894;6.040;2022-09-09T19:28:52;18.60;99.90
52531;DHT22;38441;52.894;6.040;2022-09-09T19:31:19;16.80;99.90
52531;DHT22;38441;52.894;6.040;2022-09-09T19:33:46;18.20;99.90
52531;DHT22;38441;52.894;6.040;2022-09-09T19:36:14;16.60;99.90
52531;DHT22;38441;52.894;6.040;2022-09-09T19:38:41;16.70;99.90
52531;DHT22;38441;52.894;6.040;2022-09-09T19:41:09;16.80;99.90
52531;DHT22;38441;52.894;6.040;2022-09-09T19:43:35;17.60;99.90
52531;DHT22;38441;52.894;6.040;2022-09-09T19:46:04;16.70;99.90
52531;DHT22;38441;52.894;6.040;2022-09-09T19:48:36;16.60;99.90
52531;DHT22;38441;52.894;6.040;2022-09-09T19:51:14;15.60;99.90
52531;DHT22;38441;52.894;6.040;2022-09-09T19:53:51;16.60;99.90
52531;DHT22;38441;52.894;6.040;2022-09-09T19:56:22;16.70;99.90
52531;DHT22;38441;52.894;6.040;2022-09-09T20:01:20;16.50;99.90
52531;DHT22;38441;52.894;6.040;2022-09-09T20:03:46;15.20;99.90
52531;DHT22;38441;52.894;6.040;2022-09-09T20:06:14;16.50;99.90
52531;DHT22;38441;52.894;6.040;2022-09-09T20:08:43;16.60;99.90
52531;DHT22;38441;52.894;6.040;2022-09-09T20:11:10;18.10;99.90
52531;DHT22;38441;52.894;6.040;2022-09-09T20:13:37;15.50;99.90
52531;DHT22;38441;52.894;6.040;2022-09-09T20:16:07;18.10;99.90
52531;DHT22;38441;52.894;6.040;2022-09-09T20:18:35;16.40;99.90
52531;DHT22;38441;52.894;6.040;2022-09-09T20:21:09;16.40;99.90
52531;DHT22;38441;52.894;6.040;2022-09-09T20:23:36;16.50;99.90
52531;DHT22;38441;52.894;6.040;2022-09-09T20:26:04;18.80;99.90
52531;DHT22;38441;52.894;6.040;2022-09-09T20:28:37;16.50;99.90
52531;DHT22;38441;52.894;6.040;2022-09-09T20:31:09;16.30;99.90
52531;DHT22;38441;52.894;6.040;2022-09-09T20:33:36;16.20;99.90
52531;DHT22;38441;52.894;6.040;2022-09-09T20:36:13;16.20;99.90
52531;DHT22;38441;52.894;6.040;2022-09-09T20:38:59;16.20;99.90
52531;DHT22;38441;52.894;6.040;2022-09-09T20:41:29;16.30;99.90
52531;DHT22;38441;52.894;6.040;2022-09-09T20:43:57;16.20;99.90
52531;DHT22;38441;52.894;6.040;2022-09-09T20:46:30;18.00;99.90
52531;DHT22;38441;52.894;6.040;2022-09-09T20:51:23;16.30;99.90
52531;DHT22;38441;52.894;6.040;2022-09-09T20:53:55;17.70;99.90
52531;DHT22;38441;52.894;6.040;2022-09-09T20:56:26;17.70;99.90
52531;DHT22;38441;52.894;6.040;2022-09-09T20:58:52;16.20;99.90
52531;DHT22;38441;52.894;6.040;2022-09-09T21:01:20;17.70;99.90
52531;DHT22;38441;52.894;6.040;2022-09-09T21:03:46;16.20;99.90
52531;DHT22;38441;52.894;6.040;2022-09-09T21:06:13;17.70;99.90
52531;DHT22;38441;52.894;6.040;2022-09-09T21:11:06;16.00;99.90